createdAt,value
2022-11-08T00:01:05.124Z,19.6
2022-11-08T00:06:25.670Z,19.6
2022-11-08T00:11:48.299Z,19.6
2022-11-08T00:17:09.948Z,19.6
2022-11-08T00:22:46.825Z,19.6
2022-11-08T00:28:08.644Z,19.6
2022-11-08T00:33:46.010Z,19.6
2022-11-08T00:39:23.391Z,19.6
2022-11-08T00:45:01.122Z,19.6
2022-11-08T00:50:37.901Z,19.6
2022-11-08T00:56:14.681Z,19.6
2022-11-08T01:02:15.958Z,19.6
2022-11-08T01:07:37.390Z,19.6
2022-11-08T01:13:14.504Z,19.6
2022-11-08T01:18:36.797Z,19.6
2022-11-08T01:23:58.875Z,19.6
2022-11-08T01:29:36.476Z,19.6
2022-11-08T01:35:14.832Z,19.6
2022-11-08T01:40:51.744Z,19.6
2022-11-08T01:45:58.063Z,19.6
2022-11-08T01:51:21.329Z,19.6
2022-11-08T01:56:58.633Z,19.6
2022-11-08T02:02:34.681Z,19.6
2022-11-08T02:07:56.690Z,19.6
2022-11-08T02:13:38.558Z,19.6
2022-11-08T02:19:00.116Z,19.6
2022-11-08T02:24:38.514Z,19.6
2022-11-08T02:29:59.866Z,19.6
2022-11-08T02:35:36.534Z,19.6
2022-11-08T02:41:13.943Z,19.6
2022-11-08T02:46:52.944Z,19.6
2022-11-08T02:52:30.446Z,19.6
2022-11-08T02:57:52.593Z,19.6
2022-11-08T03:03:29.846Z,19.5
2022-11-08T03:08:36.764Z,19.5
2022-11-08T03:14:15.154Z,19.5
2022-11-08T03:19:52.429Z,19.5
2022-11-08T03:25:34.175Z,19.5
2022-11-08T03:31:12.296Z,19.6
2022-11-08T03:36:33.066Z,19.5
2022-11-08T03:41:54.175Z,19.5
2022-11-08T03:47:32.174Z,19.5
2022-11-08T03:53:08.925Z,19.4
2022-11-08T03:58:45.514Z,19.5
2022-11-08T04:04:08.709Z,19.5
2022-11-08T04:09:45.760Z,19.5
2022-11-08T04:15:23.139Z,19.4
2022-11-08T04:21:05.882Z,19.4
2022-11-08T04:26:43.687Z,19.4
2022-11-08T04:31:49.222Z,19.4
2022-11-08T04:37:11.814Z,19.4
2022-11-08T04:42:37.311Z,19.4
2022-11-08T04:48:05.585Z,19.4
2022-11-08T04:53:43.034Z,19.4
2022-11-08T04:58:49.722Z,19.3
2022-11-08T05:04:34.233Z,19.3
2022-11-08T05:10:01.313Z,19.3
2022-11-08T05:15:39.529Z,19.3
2022-11-08T05:21:09.001Z,19.3
2022-11-08T05:26:46.794Z,19.3
2022-11-08T05:32:27.659Z,19.3
2022-11-08T05:38:04.810Z,19.3
2022-11-08T05:43:36.252Z,19.3
2022-11-08T05:48:57.844Z,19.3
2022-11-08T05:54:34.906Z,19.3
2022-11-08T06:00:12.983Z,19.3
2022-11-08T06:05:52.989Z,19.3
2022-11-08T06:11:35.603Z,19.3
2022-11-08T06:17:14.688Z,18.9
2022-11-08T06:22:51.864Z,19.1
2022-11-08T06:28:33.523Z,19.2
2022-11-08T06:33:57.696Z,19.3
2022-11-08T06:39:25.035Z,19.3
2022-11-08T06:44:47.684Z,19.3
2022-11-08T06:50:30.989Z,19.3
2022-11-08T06:56:13.845Z,19.3
2022-11-08T07:01:51.118Z,19.3
2022-11-08T07:07:16.132Z,19.3
2022-11-08T07:12:54.893Z,19.3
2022-11-08T07:18:32.019Z,19.3
2022-11-08T07:24:10.408Z,19.3
2022-11-08T07:29:49.999Z,19.3
2022-11-08T07:35:11.224Z,19.3
2022-11-08T07:40:49.824Z,19.3
2022-11-08T07:46:54.322Z,19.3
2022-11-08T07:52:31.158Z,19.3
2022-11-08T07:58:13.299Z,19.3
2022-11-08T08:03:52.530Z,19.3
2022-11-08T08:09:29.680Z,19.3
2022-11-08T08:15:14.028Z,19.3
2022-11-08T08:20:37.570Z,19.3
2022-11-08T08:26:14.975Z,19.3
2022-11-08T08:31:53.062Z,19.3
2022-11-08T08:38:05.350Z,19.3
2022-11-08T08:43:50.327Z,19.3
2022-11-08T08:49:29.682Z,19.3
2022-11-08T08:55:06.658Z,19.2
2022-11-08T09:03:17.060Z,19.3
2022-11-08T09:08:40.141Z,19.2
2022-11-08T09:14:05.371Z,19.3
2022-11-08T09:19:27.606Z,19.3
2022-11-08T09:24:49.882Z,19.2
2022-11-08T09:30:11.716Z,19.3
2022-11-08T09:36:01.583Z,19.2
2022-11-08T09:41:29.458Z,19.3
2022-11-08T09:46:52.648Z,19.2
2022-11-08T09:52:30.576Z,19.2
2022-11-08T09:58:10.645Z,19.3
2022-11-08T10:03:54.554Z,19.3
2022-11-08T10:09:17.443Z,19.3
2022-11-08T10:15:08.086Z,19.2
2022-11-08T10:20:30.153Z,19.3
2022-11-08T10:26:08.097Z,19.2
2022-11-08T10:31:48.277Z,19.3
2022-11-08T10:37:26.430Z,19.3
2022-11-08T10:43:08.214Z,19.3
2022-11-08T10:48:47.318Z,19.2
2022-11-08T10:54:26.888Z,19.3
2022-11-08T11:00:04.252Z,19.3
2022-11-08T11:05:44.747Z,19.3
2022-11-08T11:11:22.463Z,19.2
2022-11-08T11:16:49.212Z,19.2
2022-11-08T11:22:27.137Z,19.2
2022-11-08T11:28:05.053Z,19.2
2022-11-08T11:33:42.849Z,19.3
2022-11-08T11:39:20.918Z,19.2
2022-11-08T11:45:25.340Z,19.2
2022-11-08T11:51:07.166Z,19.2
2022-11-08T11:56:50.900Z,19.2
2022-11-08T12:02:33.127Z,19.2
2022-11-08T12:07:56.085Z,19.2
2022-11-08T12:13:34.065Z,19.3
2022-11-08T12:19:32.467Z,19.3
2022-11-08T12:24:58.479Z,19.3
2022-11-08T12:30:38.655Z,19.3
2022-11-08T12:36:15.674Z,19.2
2022-11-08T12:41:53.453Z,19.1
2022-11-08T12:47:31.237Z,19.2
2022-11-08T12:53:13.828Z,19.2
2022-11-08T12:58:52.072Z,19.2
2022-11-08T13:04:35.883Z,19.2
2022-11-08T13:10:13.176Z,19.2
2022-11-08T13:15:50.641Z,19.2
2022-11-08T13:21:29.838Z,19.2
2022-11-08T13:27:33.640Z,19.3
2022-11-08T13:32:55.894Z,19.2
2022-11-08T13:38:34.662Z,19.3
2022-11-08T13:44:15.754Z,19.2
2022-11-08T13:49:54.159Z,19.2
2022-11-08T13:55:32.440Z,19.2
2022-11-08T14:01:10.544Z,19.2
2022-11-08T14:06:48.841Z,19.2
2022-11-08T14:12:35.606Z,19.2
2022-11-08T14:18:12.771Z,19.3
2022-11-08T14:23:57.123Z,19.2
2022-11-08T14:29:35.721Z,19.2
2022-11-08T14:35:18.736Z,19.3
2022-11-08T14:40:59.305Z,19.3
2022-11-08T14:46:38.133Z,19.3
2022-11-08T14:52:03.813Z,19.2
2022-11-08T14:57:44.200Z,19.3
2022-11-08T15:03:22.461Z,19.3
2022-11-08T15:08:44.912Z,19.3
2022-11-08T15:14:23.270Z,19.3
2022-11-08T15:20:06.401Z,19.3
2022-11-08T15:25:44.027Z,19.3
2022-11-08T15:31:24.090Z,19.3
2022-11-08T15:36:51.180Z,19.3
2022-11-08T15:42:17.624Z,19.3
2022-11-08T15:47:54.759Z,19.2
2022-11-08T15:53:33.078Z,19.2
2022-11-08T15:59:10.671Z,19.2
2022-11-08T16:04:33.268Z,19.2
2022-11-08T16:10:16.577Z,19.2
2022-11-08T16:15:38.455Z,19.2
2022-11-08T16:21:21.432Z,19.1
2022-11-08T16:26:49.784Z,19.1
2022-11-08T16:32:27.768Z,19.1
2022-11-08T16:37:49.450Z,19.1
2022-11-08T16:43:12.373Z,19.1
2022-11-08T16:49:23.650Z,19.1
2022-11-08T16:55:01.282Z,19.1
2022-11-08T17:00:54.713Z,19.1
2022-11-08T17:06:16.847Z,19.1
2022-11-08T17:12:00.075Z,19.1
2022-11-08T17:17:39.118Z,19.1
2022-11-08T17:23:55.571Z,19.1
2022-11-08T17:29:37.979Z,19.1
2022-11-08T17:35:17.258Z,19.1
2022-11-08T17:40:55.821Z,19.1
2022-11-08T17:46:36.544Z,19.1
2022-11-08T17:52:14.646Z,19.1
2022-11-08T17:57:55.334Z,19.1
2022-11-08T18:03:18.892Z,19.1
2022-11-08T18:09:01.257Z,19.1
2022-11-08T18:14:28.182Z,19.1
2022-11-08T18:19:50.892Z,19.1
2022-11-08T18:25:03.604Z,19.1
2022-11-08T18:30:45.273Z,19.1
2022-11-08T18:36:24.818Z,19.1
2022-11-08T18:42:05.927Z,19.1
2022-11-08T18:47:49.960Z,19.1
2022-11-08T18:53:27.881Z,19.1
2022-11-08T18:59:05.279Z,19.1
2022-11-08T19:04:48.088Z,19.1
2022-11-08T19:09:58.439Z,19.1
2022-11-08T19:15:20.345Z,19.1
2022-11-08T19:20:57.300Z,19
2022-11-08T19:26:34.612Z,19.1
2022-11-08T19:32:15.045Z,19.1
2022-11-08T19:37:41.873Z,19.1
2022-11-08T19:43:19.576Z,19.1
2022-11-08T19:48:27.085Z,19.1
2022-11-08T19:53:33.853Z,19.1
2022-11-08T19:59:18.583Z,19.1
2022-11-08T20:04:40.824Z,19.1
2022-11-08T20:10:05.060Z,19.1
2022-11-08T20:15:11.464Z,19.1
2022-11-08T20:20:35.552Z,19.1
2022-11-08T20:26:13.213Z,19.1
2022-11-08T20:31:43.031Z,19.1
2022-11-08T20:37:26.031Z,19.1
2022-11-08T20:42:49.552Z,19.1
2022-11-08T20:48:20.611Z,19.1
2022-11-08T20:54:05.383Z,19.1
2022-11-08T20:59:48.500Z,19.1
2022-11-08T21:05:48.444Z,19.1
2022-11-08T21:13:48.557Z,19.1
2022-11-08T21:19:20.188Z,19.1
2022-11-08T21:32:52.005Z,19.1
2022-11-08T21:38:30.401Z,19.1
2022-11-08T21:44:11.478Z,19.1
2022-11-08T21:49:54.955Z,19
2022-11-08T21:55:39.069Z,19
2022-11-08T22:01:00.331Z,19.1
2022-11-08T22:06:24.054Z,19.1
2022-11-08T22:11:51.645Z,19.1
2022-11-08T22:16:57.895Z,19.1
2022-11-08T22:22:58.754Z,19.1
2022-11-08T22:28:21.147Z,19.1
2022-11-08T22:33:26.690Z,19.1
2022-11-08T22:38:53.210Z,19.1
2022-11-08T22:44:15.263Z,19.1
2022-11-08T22:49:39.810Z,19.1
2022-11-08T22:54:32.071Z,19.1
2022-11-08T22:59:23.698Z,19.1
2022-11-08T23:04:46.320Z,19.1
2022-11-08T23:09:53.714Z,19.1
2022-11-08T23:15:16.310Z,19.1
2022-11-08T23:20:22.584Z,19.1
2022-11-08T23:25:45.157Z,19.1
2022-11-08T23:30:38.951Z,19.1
2022-11-08T23:36:00.401Z,19.1
2022-11-08T23:41:10.240Z,19.1
2022-11-08T23:46:47.241Z,19.2
2022-11-08T23:51:53.226Z,19.1
2022-11-08T23:57:15.368Z,19.1
